ACA659 EHAM-CYUL
Flight info
| Callsign | ACA659 |
|---|---|
| Flight time | N/A |
| Altitude | FL340 |
| Route | VALK5M IDRID L980 MANGO ENHAQ GAJIT BAPHU LESLU RODEL NATG NICSO SATIP Q907 MIILS KEBIG ROCKT3 |
| Aircraft | B77W/H-SDE1E2E3FGHIJ2J3J4J5M1RWXY/LB1D1 |
Departure
| Time | 2026-05-06 13:45 |
|---|---|
| Airport | Amsterdam Airport Schiphol (EHAM) |
Arrival
| Time | N/A |
|---|---|
| Airport | Montreal / Pierre Elliott Trudeau International Airport (CYUL) |
| Time | Latitude | Longitude | Altitude | Speed | Heading |
|---|---|---|---|---|---|
| 2026-05-06 13:45 | 52.10832 | 4.45678 | 12884 ft | 365 kts | 255° |
| 2026-05-06 13:45 | 52.10359 | 4.41587 | 13444 ft | 377 kts | 263° |
| 2026-05-06 13:46 | 52.10097 | 4.37322 | 13921 ft | 388 kts | 264° |
| 2026-05-06 13:46 | 52.09851 | 4.32953 | 14686 ft | 395 kts | 266° |
| 2026-05-06 13:46 | 52.09629 | 4.28482 | 15573 ft | 399 kts | 263° |
| 2026-05-06 13:46 | 52.09438 | 4.25055 | 16254 ft | 400 kts | 265° |
| 2026-05-06 13:47 | 52.09319 | 4.22712 | 16671 ft | 400 kts | 268° |
| 2026-05-06 13:47 | 52.09098 | 4.18223 | 17339 ft | 408 kts | 265° |
| 2026-05-06 13:47 | 52.08848 | 4.13612 | 18079 ft | 414 kts | 268° |
| 2026-05-06 13:48 | 52.08600 | 4.08974 | 18838 ft | 417 kts | 268° |
| 2026-05-06 13:48 | 52.08356 | 4.04265 | 19438 ft | 422 kts | 268° |
| 2026-05-06 13:48 | 52.08101 | 3.99512 | 19955 ft | 428 kts | 266° |
| 2026-05-06 13:48 | 52.07828 | 3.94704 | 20596 ft | 432 kts | 267° |
| 2026-05-06 13:49 | 52.07540 | 3.89873 | 21414 ft | 435 kts | 264° |
| 2026-05-06 13:49 | 52.07159 | 3.85023 | 22269 ft | 436 kts | 259° |
| 2026-05-06 13:49 | 52.06379 | 3.80283 | 22919 ft | 441 kts | 252° |
| 2026-05-06 13:49 | 52.05369 | 3.75597 | 23535 ft | 445 kts | 251° |
| 2026-05-06 13:50 | 52.04323 | 3.70843 | 24249 ft | 449 kts | 251° |
| 2026-05-06 13:50 | 52.03299 | 3.66116 | 24839 ft | 450 kts | 253° |
| 2026-05-06 13:50 | 52.02263 | 3.61360 | 25330 ft | 456 kts | 251° |
| 2026-05-06 13:50 | 52.01189 | 3.56517 | 25948 ft | 460 kts | 250° |
| 2026-05-06 13:51 | 52.00044 | 3.51701 | 26585 ft | 462 kts | 248° |
| 2026-05-06 13:51 | 51.98566 | 3.47093 | 26889 ft | 468 kts | 239° |
| 2026-05-06 13:51 | 51.96720 | 3.42724 | 27242 ft | 474 kts | 236° |
| 2026-05-06 13:51 | 51.94754 | 3.38449 | 27924 ft | 475 kts | 234° |
| 2026-05-06 13:52 | 51.92784 | 3.34191 | 28741 ft | 474 kts | 233° |
| 2026-05-06 13:52 | 51.90819 | 3.29927 | 29444 ft | 475 kts | 233° |
| 2026-05-06 13:52 | 51.88888 | 3.25725 | 30131 ft | 475 kts | 233° |
| 2026-05-06 13:52 | 51.87125 | 3.21435 | 30844 ft | 474 kts | 241° |
| 2026-05-06 13:53 | 51.85729 | 3.16661 | 31619 ft | 471 kts | 249° |
| 2026-05-06 13:53 | 51.84792 | 3.11728 | 32258 ft | 469 kts | 257° |
| 2026-05-06 13:53 | 51.84270 | 3.06545 | 32794 ft | 469 kts | 263° |
| 2026-05-06 13:53 | 51.83915 | 3.01319 | 33248 ft | 470 kts | 265° |
| 2026-05-06 13:54 | 51.83587 | 2.96117 | 33584 ft | 470 kts | 266° |
| 2026-05-06 13:54 | 51.83255 | 2.90867 | 33804 ft | 471 kts | 266° |
| 2026-05-06 13:54 | 51.82910 | 2.85617 | 33917 ft | 474 kts | 264° |
| 2026-05-06 13:54 | 51.82559 | 2.80489 | 33907 ft | 472 kts | 264° |
| 2026-05-06 13:55 | 51.81840 | 2.70029 | 33913 ft | 469 kts | 264° |
| 2026-05-06 13:55 | 51.81121 | 2.59645 | 33922 ft | 471 kts | 264° |
| 2026-05-06 13:56 | 51.80397 | 2.49285 | 33923 ft | 470 kts | 264° |
| 2026-05-06 13:56 | 51.79660 | 2.38849 | 33925 ft | 470 kts | 264° |
| 2026-05-06 13:57 | 51.78923 | 2.28435 | 33936 ft | 472 kts | 263° |
| 2026-05-06 13:57 | 51.78200 | 2.18034 | 33936 ft | 470 kts | 264° |
| 2026-05-06 13:58 | 51.77596 | 2.07589 | 33937 ft | 470 kts | 265° |
| 2026-05-06 13:58 | 51.76979 | 1.97105 | 33941 ft | 470 kts | 265° |
| 2026-05-06 13:59 | 51.76356 | 1.86749 | 33937 ft | 469 kts | 265° |
| 2026-05-06 13:59 | 51.75717 | 1.76317 | 33941 ft | 470 kts | 265° |
| 2026-05-06 14:00 | 51.75069 | 1.65902 | 33936 ft | 470 kts | 265° |
| 2026-05-06 14:00 | 51.74410 | 1.55463 | 33938 ft | 470 kts | 265° |
| 2026-05-06 14:01 | 51.73742 | 1.45052 | 33939 ft | 470 kts | 265° |
| 2026-05-06 14:01 | 51.73064 | 1.34626 | 33946 ft | 470 kts | 264° |
| 2026-05-06 14:02 | 51.72381 | 1.24274 | 33935 ft | 470 kts | 264° |
| 2026-05-06 14:02 | 51.71689 | 1.13913 | 33941 ft | 469 kts | 264° |
| 2026-05-06 14:03 | 51.70986 | 1.03537 | 33943 ft | 469 kts | 264° |
| 2026-05-06 14:03 | 51.70302 | 0.93577 | 33945 ft | 469 kts | 264° |
| 2026-05-06 14:04 | 51.69588 | 0.83312 | 33946 ft | 468 kts | 264° |
| 2026-05-06 14:04 | 51.68739 | 0.72977 | 33947 ft | 469 kts | 261° |
| 2026-05-06 14:05 | 51.67645 | 0.62743 | 33953 ft | 468 kts | 261° |
| 2026-05-06 14:05 | 51.66548 | 0.52454 | 33953 ft | 468 kts | 261° |
| 2026-05-06 14:06 | 51.65457 | 0.42218 | 33951 ft | 468 kts | 261° |
| 2026-05-06 14:06 | 51.64366 | 0.32035 | 33954 ft | 468 kts | 261° |
| 2026-05-06 14:07 | 51.63272 | 0.21873 | 33960 ft | 468 kts | 261° |
| 2026-05-06 14:07 | 51.62156 | 0.11586 | 33969 ft | 467 kts | 261° |
| 2026-05-06 14:08 | 51.61045 | 0.01429 | 33971 ft | 468 kts | 261° |
| 2026-05-06 14:08 | 51.59943 | -0.08576 | 33974 ft | 467 kts | 261° |
| 2026-05-06 14:09 | 51.58811 | -0.18765 | 33973 ft | 466 kts | 261° |
| 2026-05-06 14:09 | 51.57686 | -0.28800 | 33974 ft | 467 kts | 261° |
| 2026-05-06 14:10 | 51.56555 | -0.38823 | 33975 ft | 466 kts | 261° |
| 2026-05-06 14:10 | 51.55398 | -0.48985 | 33977 ft | 466 kts | 261° |
| 2026-05-06 14:11 | 51.54227 | -0.59188 | 33975 ft | 466 kts | 261° |
| 2026-05-06 14:11 | 51.53061 | -0.69267 | 33980 ft | 466 kts | 260° |
| 2026-05-06 14:12 | 51.51881 | -0.79391 | 33980 ft | 466 kts | 260° |
| 2026-05-06 14:12 | 51.50691 | -0.89516 | 33981 ft | 466 kts | 260° |
| 2026-05-06 14:13 | 51.49491 | -0.99650 | 33980 ft | 466 kts | 260° |
| 2026-05-06 14:13 | 51.48285 | -1.09754 | 33983 ft | 465 kts | 260° |
| 2026-05-06 14:14 | 51.47072 | -1.19840 | 33981 ft | 464 kts | 260° |
| 2026-05-06 14:14 | 51.45848 | -1.29937 | 33979 ft | 464 kts | 260° |
| 2026-05-06 14:15 | 51.44620 | -1.39992 | 33978 ft | 464 kts | 260° |
| 2026-05-06 14:15 | 51.43382 | -1.50056 | 33975 ft | 465 kts | 260° |
| 2026-05-06 14:16 | 51.42132 | -1.60146 | 33982 ft | 463 kts | 260° |
| 2026-05-06 14:16 | 51.40859 | -1.70207 | 33974 ft | 464 kts | 257° |
| 2026-05-06 14:17 | 51.38880 | -1.79958 | 33982 ft | 465 kts | 251° |
| 2026-05-06 14:17 | 51.36751 | -1.89638 | 33987 ft | 464 kts | 251° |
| 2026-05-06 14:18 | 51.34686 | -1.99331 | 33987 ft | 464 kts | 256° |
| 2026-05-06 14:18 | 51.33624 | -2.09401 | 33986 ft | 463 kts | 263° |
| 2026-05-06 14:19 | 51.32730 | -2.19543 | 33978 ft | 464 kts | 263° |
| 2026-05-06 14:19 | 51.31827 | -2.29662 | 33981 ft | 462 kts | 263° |
| 2026-05-06 14:20 | 51.30921 | -2.39695 | 33988 ft | 462 kts | 263° |
| 2026-05-06 14:20 | 51.30000 | -2.49779 | 33986 ft | 462 kts | 263° |
| 2026-05-06 14:21 | 51.29072 | -2.59847 | 33996 ft | 462 kts | 263° |
| 2026-05-06 14:21 | 51.28135 | -2.69917 | 34004 ft | 462 kts | 262° |
| 2026-05-06 14:22 | 51.27188 | -2.79991 | 34009 ft | 462 kts | 262° |
| 2026-05-06 14:22 | 51.26234 | -2.90048 | 34006 ft | 461 kts | 262° |
| 2026-05-06 14:23 | 51.25267 | -3.00140 | 34014 ft | 461 kts | 262° |
| 2026-05-06 14:23 | 51.24299 | -3.10146 | 34013 ft | 460 kts | 262° |
| 2026-05-06 14:24 | 51.23322 | -3.20158 | 34014 ft | 460 kts | 262° |
| 2026-05-06 14:24 | 51.22338 | -3.30156 | 34017 ft | 461 kts | 262° |
| 2026-05-06 14:25 | 51.21341 | -3.40182 | 34017 ft | 461 kts | 262° |
| 2026-05-06 14:25 | 51.20340 | -3.50171 | 34015 ft | 460 kts | 262° |
| 2026-05-06 14:26 | 51.19327 | -3.60178 | 34013 ft | 460 kts | 262° |
| 2026-05-06 14:26 | 51.18303 | -3.70211 | 34010 ft | 460 kts | 261° |
| 2026-05-06 14:27 | 51.17741 | -3.80227 | 34015 ft | 459 kts | 271° |
| 2026-05-06 14:27 | 51.17495 | -3.90365 | 34011 ft | 461 kts | 268° |
| 2026-05-06 14:28 | 51.17228 | -4.00460 | 34011 ft | 459 kts | 268° |
| 2026-05-06 14:28 | 51.16956 | -4.10613 | 34012 ft | 459 kts | 268° |
| 2026-05-06 14:29 | 51.16679 | -4.20712 | 34012 ft | 460 kts | 268° |
| 2026-05-06 14:29 | 51.16394 | -4.30825 | 34012 ft | 460 kts | 268° |
| 2026-05-06 14:30 | 51.16099 | -4.40982 | 34011 ft | 460 kts | 268° |
| 2026-05-06 14:30 | 51.15798 | -4.51077 | 34011 ft | 460 kts | 268° |
| 2026-05-06 14:31 | 51.15488 | -4.61178 | 34011 ft | 460 kts | 268° |
| 2026-05-06 14:31 | 51.15169 | -4.71290 | 34014 ft | 460 kts | 268° |
| 2026-05-06 14:32 | 51.14840 | -4.81443 | 34013 ft | 461 kts | 268° |
| 2026-05-06 14:32 | 51.14504 | -4.91549 | 34014 ft | 460 kts | 268° |
| 2026-05-06 14:33 | 51.14159 | -5.01646 | 34011 ft | 459 kts | 268° |
| 2026-05-06 14:33 | 51.13805 | -5.11770 | 34002 ft | 461 kts | 268° |
| 2026-05-06 14:34 | 51.13442 | -5.21892 | 33997 ft | 461 kts | 268° |
| 2026-05-06 14:34 | 51.13071 | -5.32004 | 33998 ft | 461 kts | 268° |
| 2026-05-06 14:35 | 51.12690 | -5.42118 | 34003 ft | 461 kts | 268° |
| 2026-05-06 14:35 | 51.12300 | -5.52270 | 34005 ft | 461 kts | 268° |
| 2026-05-06 14:36 | 51.11901 | -5.62395 | 34006 ft | 461 kts | 268° |
| 2026-05-06 14:36 | 51.11494 | -5.72514 | 34009 ft | 461 kts | 267° |
| 2026-05-06 14:37 | 51.11078 | -5.82656 | 34010 ft | 461 kts | 267° |
| 2026-05-06 14:37 | 51.10653 | -5.92775 | 34010 ft | 460 kts | 268° |
| 2026-05-06 14:38 | 51.10227 | -6.02879 | 34013 ft | 462 kts | 267° |
| 2026-05-06 14:38 | 51.09783 | -6.12974 | 34015 ft | 460 kts | 267° |
| 2026-05-06 14:39 | 51.09329 | -6.23109 | 34015 ft | 460 kts | 267° |
| 2026-05-06 14:39 | 51.08870 | -6.33198 | 34015 ft | 461 kts | 267° |
| 2026-05-06 14:40 | 51.08402 | -6.43292 | 34014 ft | 461 kts | 267° |
| 2026-05-06 14:40 | 51.07925 | -6.53400 | 34013 ft | 461 kts | 267° |
| 2026-05-06 14:41 | 51.07440 | -6.63485 | 34014 ft | 461 kts | 268° |
| 2026-05-06 14:41 | 51.06947 | -6.73563 | 34019 ft | 460 kts | 266° |
| 2026-05-06 14:42 | 51.06445 | -6.83638 | 34016 ft | 461 kts | 267° |
| 2026-05-06 14:42 | 51.05933 | -6.93755 | 34016 ft | 460 kts | 267° |
| 2026-05-06 14:43 | 51.05414 | -7.03823 | 34015 ft | 460 kts | 267° |
| 2026-05-06 14:43 | 51.04886 | -7.13903 | 34015 ft | 462 kts | 266° |
| 2026-05-06 14:44 | 51.04346 | -7.24039 | 34013 ft | 461 kts | 266° |
| 2026-05-06 14:45 | 51.03521 | -7.39204 | 34014 ft | 463 kts | 267° |
| 2026-05-06 14:45 | 51.02955 | -7.49420 | 34408 ft | 470 kts | 267° |
| 2026-05-06 14:45 | 51.02668 | -7.54521 | 34977 ft | 465 kts | 267° |
| 2026-05-06 14:46 | 51.02379 | -7.59615 | 35449 ft | 462 kts | 267° |
| 2026-05-06 14:46 | 51.02091 | -7.64663 | 35771 ft | 462 kts | 267° |
| 2026-05-06 14:46 | 51.01800 | -7.69728 | 35976 ft | 465 kts | 266° |
| 2026-05-06 14:47 | 51.01208 | -7.79912 | 36014 ft | 466 kts | 266° |
| 2026-05-06 14:47 | 51.00609 | -7.90064 | 36014 ft | 464 kts | 266° |
| 2026-05-06 14:48 | 50.99999 | -8.00248 | 36016 ft | 465 kts | 266° |
| 2026-05-06 14:48 | 50.99550 | -8.10424 | 36009 ft | 466 kts | 268° |
| 2026-05-06 14:49 | 50.99134 | -8.20626 | 36000 ft | 467 kts | 268° |
| 2026-05-06 14:49 | 50.98701 | -8.30863 | 35996 ft | 467 kts | 268° |
| 2026-05-06 14:50 | 50.98254 | -8.41095 | 36001 ft | 468 kts | 268° |
| 2026-05-06 14:50 | 50.97798 | -8.51312 | 36003 ft | 468 kts | 268° |
| 2026-05-06 14:51 | 50.97330 | -8.61547 | 36008 ft | 468 kts | 268° |
| 2026-05-06 14:51 | 50.96852 | -8.71810 | 36005 ft | 469 kts | 267° |
| 2026-05-06 14:52 | 50.96364 | -8.82077 | 35998 ft | 469 kts | 267° |
| 2026-05-06 14:52 | 50.95867 | -8.92339 | 35992 ft | 470 kts | 267° |
| 2026-05-06 14:53 | 50.95357 | -9.02666 | 35993 ft | 471 kts | 267° |
| 2026-05-06 14:53 | 50.94840 | -9.12952 | 35995 ft | 471 kts | 267° |
| 2026-05-06 14:54 | 50.94314 | -9.23259 | 35997 ft | 472 kts | 267° |
| 2026-05-06 14:54 | 50.93779 | -9.33535 | 36001 ft | 472 kts | 267° |
| 2026-05-06 14:55 | 50.93231 | -9.43898 | 36002 ft | 474 kts | 267° |
| 2026-05-06 14:55 | 50.92674 | -9.54247 | 35777 ft | 475 kts | 267° |
| 2026-05-06 14:55 | 50.92393 | -9.59409 | 35931 ft | 474 kts | 267° |
| 2026-05-06 14:56 | 50.92108 | -9.64605 | 35988 ft | 478 kts | 267° |
| 2026-05-06 14:56 | 50.91528 | -9.75041 | 36009 ft | 476 kts | 266° |
| 2026-05-06 14:57 | 50.90941 | -9.85432 | 36318 ft | 478 kts | 266° |
| 2026-05-06 14:57 | 50.90642 | -9.90663 | 35913 ft | 479 kts | 266° |
| 2026-05-06 14:57 | 50.90342 | -9.95851 | 35990 ft | 478 kts | 266° |
| 2026-05-06 14:58 | 50.89732 | -10.06330 | 36014 ft | 480 kts | 266° |
| 2026-05-06 14:58 | 50.89109 | -10.16836 | 36011 ft | 480 kts | 266° |
| 2026-05-06 14:59 | 50.88479 | -10.27316 | 36300 ft | 482 kts | 267° |
| 2026-05-06 14:59 | 50.88159 | -10.32574 | 35840 ft | 483 kts | 267° |
| 2026-05-06 14:59 | 50.87839 | -10.37790 | 35908 ft | 476 kts | 267° |
| 2026-05-06 15:00 | 50.87190 | -10.48263 | 36008 ft | 483 kts | 267° |
| 2026-05-06 15:00 | 50.86528 | -10.58793 | 36011 ft | 482 kts | 267° |
| 2026-05-06 15:00 | 50.86196 | -10.64023 | 36269 ft | 483 kts | 266° |
| 2026-05-06 15:01 | 50.85858 | -10.69296 | 36069 ft | 484 kts | 266° |
| 2026-05-06 15:01 | 50.85180 | -10.79772 | 35785 ft | 483 kts | 266° |
| 2026-05-06 15:01 | 50.84836 | -10.85027 | 35937 ft | 484 kts | 266° |
| 2026-05-06 15:02 | 50.84486 | -10.90354 | 35998 ft | 487 kts | 266° |
| 2026-05-06 15:02 | 50.83782 | -11.00938 | 36023 ft | 486 kts | 266° |
| 2026-05-06 15:03 | 50.83069 | -11.11488 | 36031 ft | 485 kts | 266° |
| 2026-05-06 15:03 | 50.82348 | -11.22027 | 36036 ft | 486 kts | 266° |
| 2026-05-06 15:04 | 50.81615 | -11.32608 | 36035 ft | 486 kts | 266° |
| 2026-05-06 15:04 | 50.80874 | -11.43156 | 36041 ft | 486 kts | 266° |
| 2026-05-06 15:05 | 50.80123 | -11.53709 | 36030 ft | 486 kts | 266° |
| 2026-05-06 15:05 | 50.79361 | -11.64270 | 36037 ft | 486 kts | 266° |
| 2026-05-06 15:06 | 50.78588 | -11.74860 | 36037 ft | 488 kts | 265° |
| 2026-05-06 15:06 | 50.77805 | -11.85444 | 36039 ft | 488 kts | 265° |
| 2026-05-06 15:07 | 50.77014 | -11.96005 | 36038 ft | 487 kts | 265° |
| 2026-05-06 15:07 | 50.76210 | -12.06615 | 36042 ft | 488 kts | 265° |
| 2026-05-06 15:08 | 50.75398 | -12.17191 | 36042 ft | 488 kts | 265° |
| 2026-05-06 15:08 | 50.74576 | -12.27775 | 36043 ft | 489 kts | 265° |
| 2026-05-06 15:09 | 50.73744 | -12.38364 | 36022 ft | 490 kts | 265° |
| 2026-05-06 15:09 | 50.72897 | -12.49010 | 36015 ft | 490 kts | 265° |
| 2026-05-06 15:10 | 50.72043 | -12.59627 | 36020 ft | 492 kts | 265° |
| 2026-05-06 15:10 | 50.71177 | -12.70251 | 36012 ft | 491 kts | 265° |
| 2026-05-06 15:11 | 50.70300 | -12.80902 | 36019 ft | 491 kts | 265° |
| 2026-05-06 15:11 | 50.69415 | -12.91524 | 36021 ft | 492 kts | 265° |
| 2026-05-06 15:12 | 50.68521 | -13.02137 | 36023 ft | 490 kts | 265° |
| 2026-05-06 15:12 | 50.67617 | -13.12752 | 36005 ft | 493 kts | 265° |
| 2026-05-06 15:13 | 50.66699 | -13.23409 | 36014 ft | 492 kts | 265° |
| 2026-05-06 15:13 | 50.65774 | -13.34036 | 36029 ft | 492 kts | 265° |
| 2026-05-06 15:14 | 50.64840 | -13.44643 | 36013 ft | 491 kts | 265° |
| 2026-05-06 15:14 | 50.63895 | -13.55268 | 36024 ft | 491 kts | 265° |
| 2026-05-06 15:15 | 50.62944 | -13.65840 | 36029 ft | 490 kts | 264° |
| 2026-05-06 15:15 | 50.61985 | -13.76397 | 36033 ft | 491 kts | 264° |
| 2026-05-06 15:16 | 50.61015 | -13.86964 | 36032 ft | 490 kts | 264° |
| 2026-05-06 15:16 | 50.60033 | -13.97578 | 36041 ft | 492 kts | 264° |
| 2026-05-06 15:17 | 50.59044 | -14.08125 | 36060 ft | 490 kts | 264° |
| 2026-05-06 15:17 | 50.58048 | -14.18644 | 36051 ft | 488 kts | 264° |
| 2026-05-06 15:18 | 50.57039 | -14.29197 | 36038 ft | 489 kts | 265° |
| 2026-05-06 15:18 | 50.56027 | -14.39685 | 36047 ft | 489 kts | 264° |
| 2026-05-06 15:19 | 50.55003 | -14.50194 | 36045 ft | 489 kts | 265° |
| 2026-05-06 15:19 | 50.53971 | -14.60684 | 36054 ft | 489 kts | 265° |
| 2026-05-06 15:20 | 50.52926 | -14.71200 | 36061 ft | 488 kts | 264° |
| 2026-05-06 15:20 | 50.51879 | -14.81644 | 36065 ft | 488 kts | 264° |
| 2026-05-06 15:21 | 50.50821 | -14.92096 | 36042 ft | 487 kts | 264° |
| 2026-05-06 15:21 | 50.50218 | -15.02579 | 36063 ft | 482 kts | 276° |
| 2026-05-06 15:22 | 50.51299 | -15.12820 | 36052 ft | 477 kts | 285° |
| 2026-05-06 15:22 | 50.52652 | -15.22928 | 36045 ft | 477 kts | 285° |
| 2026-05-06 15:23 | 50.53947 | -15.33115 | 36067 ft | 476 kts | 284° |
| 2026-05-06 15:23 | 50.55194 | -15.43272 | 36053 ft | 477 kts | 284° |
| 2026-05-06 15:24 | 50.56417 | -15.53454 | 36050 ft | 476 kts | 284° |
| 2026-05-06 15:24 | 50.57618 | -15.63614 | 36054 ft | 475 kts | 284° |
| 2026-05-06 15:25 | 50.58809 | -15.73800 | 36055 ft | 476 kts | 283° |
| 2026-05-06 15:25 | 50.59986 | -15.83973 | 36043 ft | 475 kts | 283° |
| 2026-05-06 15:26 | 50.61150 | -15.94129 | 36048 ft | 475 kts | 283° |
| 2026-05-06 15:26 | 50.62313 | -16.04367 | 36052 ft | 476 kts | 283° |
| 2026-05-06 15:27 | 50.63457 | -16.14521 | 36049 ft | 474 kts | 283° |
| 2026-05-06 15:27 | 50.64592 | -16.24681 | 36057 ft | 475 kts | 283° |
| 2026-05-06 15:28 | 50.65720 | -16.34866 | 36064 ft | 474 kts | 283° |
| 2026-05-06 15:28 | 50.66843 | -16.45085 | 36054 ft | 474 kts | 283° |
| 2026-05-06 15:29 | 50.67951 | -16.55262 | 36038 ft | 473 kts | 283° |
| 2026-05-06 15:29 | 50.69051 | -16.65440 | 36039 ft | 474 kts | 282° |
| 2026-05-06 15:30 | 50.70145 | -16.75663 | 36037 ft | 474 kts | 282° |
| 2026-05-06 15:30 | 50.71229 | -16.85870 | 36045 ft | 474 kts | 282° |
| 2026-05-06 15:31 | 50.72302 | -16.96066 | 36059 ft | 473 kts | 282° |
| 2026-05-06 15:31 | 50.73364 | -17.06250 | 36051 ft | 472 kts | 282° |
| 2026-05-06 15:32 | 50.74937 | -17.21497 | 36041 ft | 471 kts | 282° |
| 2026-05-06 15:32 | 50.75972 | -17.31641 | 36042 ft | 471 kts | 281° |
| 2026-05-06 15:33 | 50.76996 | -17.41770 | 36038 ft | 470 kts | 282° |
| 2026-05-06 15:33 | 50.78016 | -17.51949 | 36046 ft | 471 kts | 281° |
| 2026-05-06 15:34 | 50.79023 | -17.62093 | 36041 ft | 471 kts | 281° |
| 2026-05-06 15:34 | 50.80023 | -17.72253 | 36040 ft | 471 kts | 280° |
| 2026-05-06 15:35 | 50.81016 | -17.82440 | 36040 ft | 470 kts | 280° |
| 2026-05-06 15:35 | 50.81998 | -17.92611 | 36045 ft | 470 kts | 280° |
| 2026-05-06 15:36 | 50.82970 | -18.02773 | 36043 ft | 471 kts | 280° |
| 2026-05-06 15:36 | 50.83933 | -18.12938 | 36038 ft | 470 kts | 280° |
| 2026-05-06 15:37 | 50.84889 | -18.23129 | 36037 ft | 470 kts | 280° |
| 2026-05-06 15:37 | 50.85832 | -18.33275 | 36040 ft | 469 kts | 279° |
| 2026-05-06 15:38 | 50.86765 | -18.43420 | 36038 ft | 469 kts | 279° |